sensor_id;sensor_type;location;lat;lon;timestamp;P1;durP1;ratioP1;P2;durP2;ratioP2
4766;SDS011;2397;53.576;9.746;2024-03-23T00:55:34;18.67;;;3.93;;
4766;SDS011;2397;53.576;9.746;2024-03-23T00:58:00;23.57;;;5.73;;
4766;SDS011;2397;53.576;9.746;2024-03-23T01:00:26;19.87;;;4.60;;
4766;SDS011;2397;53.576;9.746;2024-03-23T01:02:51;23.57;;;5.13;;
4766;SDS011;2397;53.576;9.746;2024-03-23T01:05:17;32.73;;;4.80;;
4766;SDS011;2397;53.576;9.746;2024-03-23T01:07:43;14.83;;;4.37;;
4766;SDS011;2397;53.576;9.746;2024-03-23T01:10:08;20.53;;;4.20;;
4766;SDS011;2397;53.576;9.746;2024-03-23T01:12:34;22.07;;;4.13;;
4766;SDS011;2397;53.576;9.746;2024-03-23T01:15:00;10.97;;;3.67;;
4766;SDS011;2397;53.576;9.746;2024-03-23T01:17:25;9.73;;;3.77;;
4766;SDS011;2397;53.576;9.746;2024-03-23T01:19:51;26.90;;;4.60;;
4766;SDS011;2397;53.576;9.746;2024-03-23T01:22:17;22.80;;;5.27;;
4766;SDS011;2397;53.576;9.746;2024-03-23T01:24:42;17.40;;;4.40;;
4766;SDS011;2397;53.576;9.746;2024-03-23T01:27:08;18.63;;;4.27;;
4766;SDS011;2397;53.576;9.746;2024-03-23T01:29:34;26.40;;;4.60;;
4766;SDS011;2397;53.576;9.746;2024-03-23T01:31:59;28.17;;;5.67;;
4766;SDS011;2397;53.576;9.746;2024-03-23T01:34:25;14.73;;;4.27;;
4766;SDS011;2397;53.576;9.746;2024-03-23T01:36:51;17.40;;;3.97;;
4766;SDS011;2397;53.576;9.746;2024-03-23T01:39:16;23.73;;;4.17;;
4766;SDS011;2397;53.576;9.746;2024-03-23T01:41:42;17.67;;;5.13;;
4766;SDS011;2397;53.576;9.746;2024-03-23T01:44:08;16.10;;;4.90;;
4766;SDS011;2397;53.576;9.746;2024-03-23T01:46:35;17.33;;;5.00;;
4766;SDS011;2397;53.576;9.746;2024-03-23T01:49:02;23.03;;;5.10;;
4766;SDS011;2397;53.576;9.746;2024-03-23T01:51:28;10.20;;;4.70;;
4766;SDS011;2397;53.576;9.746;2024-03-23T01:53:55;17.60;;;5.63;;
4766;SDS011;2397;53.576;9.746;2024-03-23T01:56:22;16.87;;;4.00;;
4766;SDS011;2397;53.576;9.746;2024-03-23T01:58:47;30.90;;;6.60;;
4766;SDS011;2397;53.576;9.746;2024-03-23T02:01:13;27.90;;;4.60;;
4766;SDS011;2397;53.576;9.746;2024-03-23T02:03:39;20.73;;;5.93;;
4766;SDS011;2397;53.576;9.746;2024-03-23T02:06:05;25.90;;;3.80;;
4766;SDS011;2397;53.576;9.746;2024-03-23T02:08:32;14.33;;;4.20;;
4766;SDS011;2397;53.576;9.746;2024-03-23T02:10:58;25.80;;;4.10;;
4766;SDS011;2397;53.576;9.746;2024-03-23T02:13:24;29.13;;;5.00;;
4766;SDS011;2397;53.576;9.746;2024-03-23T02:15:50;14.57;;;4.00;;
4766;SDS011;2397;53.576;9.746;2024-03-23T02:18:15;14.17;;;3.57;;
4766;SDS011;2397;53.576;9.746;2024-03-23T02:20:41;18.43;;;4.30;;
4766;SDS011;2397;53.576;9.746;2024-03-23T02:23:16;13.93;;;3.80;;
4766;SDS011;2397;53.576;9.746;2024-03-23T02:25:45;15.10;;;4.37;;
4766;SDS011;2397;53.576;9.746;2024-03-23T02:28:11;20.33;;;3.90;;
4766;SDS011;2397;53.576;9.746;2024-03-23T02:30:37;13.73;;;3.70;;
4766;SDS011;2397;53.576;9.746;2024-03-23T02:33:03;27.30;;;4.20;;
4766;SDS011;2397;53.576;9.746;2024-03-23T02:35:29;23.97;;;4.50;;
4766;SDS011;2397;53.576;9.746;2024-03-23T02:37:55;15.80;;;4.50;;
4766;SDS011;2397;53.576;9.746;2024-03-23T02:40:22;24.13;;;3.80;;
4766;SDS011;2397;53.576;9.746;2024-03-23T02:42:49;20.63;;;5.00;;
4766;SDS011;2397;53.576;9.746;2024-03-23T02:45:14;28.23;;;5.40;;
4766;SDS011;2397;53.576;9.746;2024-03-23T02:47:40;24.40;;;5.23;;
4766;SDS011;2397;53.576;9.746;2024-03-23T02:50:06;15.20;;;3.70;;
4766;SDS011;2397;53.576;9.746;2024-03-23T02:52:32;16.97;;;4.20;;
4766;SDS011;2397;53.576;9.746;2024-03-23T02:54:58;14.00;;;4.03;;
4766;SDS011;2397;53.576;9.746;2024-03-23T02:57:23;24.00;;;4.90;;
4766;SDS011;2397;53.576;9.746;2024-03-23T02:59:49;25.63;;;5.83;;
4766;SDS011;2397;53.576;9.746;2024-03-23T03:02:15;16.53;;;4.23;;
4766;SDS011;2397;53.576;9.746;2024-03-23T03:04:41;17.67;;;4.97;;
4766;SDS011;2397;53.576;9.746;2024-03-23T03:07:08;22.27;;;4.37;;
4766;SDS011;2397;53.576;9.746;2024-03-23T03:09:33;24.83;;;4.73;;
4766;SDS011;2397;53.576;9.746;2024-03-23T03:12:01;19.17;;;4.37;;
4766;SDS011;2397;53.576;9.746;2024-03-23T03:14:27;23.00;;;3.83;;
4766;SDS011;2397;53.576;9.746;2024-03-23T03:16:53;21.10;;;4.53;;
4766;SDS011;2397;53.576;9.746;2024-03-23T03:19:19;18.67;;;3.37;;
4766;SDS011;2397;53.576;9.746;2024-03-23T03:21:45;16.80;;;4.90;;
4766;SDS011;2397;53.576;9.746;2024-03-23T03:24:11;18.80;;;4.17;;
4766;SDS011;2397;53.576;9.746;2024-03-23T03:26:36;20.53;;;3.57;;
4766;SDS011;2397;53.576;9.746;2024-03-23T03:29:02;14.80;;;3.70;;
4766;SDS011;2397;53.576;9.746;2024-03-23T03:31:28;30.97;;;4.27;;
4766;SDS011;2397;53.576;9.746;2024-03-23T03:33:53;26.77;;;4.60;;
4766;SDS011;2397;53.576;9.746;2024-03-23T03:36:19;29.13;;;4.70;;
4766;SDS011;2397;53.576;9.746;2024-03-23T03:38:45;23.30;;;4.20;;
4766;SDS011;2397;53.576;9.746;2024-03-23T03:41:10;17.70;;;3.77;;
4766;SDS011;2397;53.576;9.746;2024-03-23T03:43:36;20.40;;;4.03;;
4766;SDS011;2397;53.576;9.746;2024-03-23T03:46:03;13.23;;;4.23;;
4766;SDS011;2397;53.576;9.746;2024-03-23T03:48:29;30.10;;;4.83;;
4766;SDS011;2397;53.576;9.746;2024-03-23T03:50:55;11.90;;;3.20;;
4766;SDS011;2397;53.576;9.746;2024-03-23T03:53:20;22.57;;;5.20;;
4766;SDS011;2397;53.576;9.746;2024-03-23T03:55:46;16.03;;;4.40;;
4766;SDS011;2397;53.576;9.746;2024-03-23T03:58:12;12.63;;;3.80;;
4766;SDS011;2397;53.576;9.746;2024-03-23T04:00:38;16.37;;;3.77;;
4766;SDS011;2397;53.576;9.746;2024-03-23T04:03:03;16.27;;;3.80;;
4766;SDS011;2397;53.576;9.746;2024-03-23T04:05:29;18.77;;;4.77;;
4766;SDS011;2397;53.576;9.746;2024-03-23T04:07:55;4.40;;;3.10;;
4766;SDS011;2397;53.576;9.746;2024-03-23T04:10:21;27.47;;;4.63;;
4766;SDS011;2397;53.576;9.746;2024-03-23T04:12:46;14.97;;;3.53;;
4766;SDS011;2397;53.576;9.746;2024-03-23T04:15:12;6.50;;;3.40;;
4766;SDS011;2397;53.576;9.746;2024-03-23T04:17:38;19.73;;;4.30;;
4766;SDS011;2397;53.576;9.746;2024-03-23T04:20:04;7.43;;;3.10;;
4766;SDS011;2397;53.576;9.746;2024-03-23T04:22:34;13.73;;;4.13;;
4766;SDS011;2397;53.576;9.746;2024-03-23T04:25:00;9.23;;;3.20;;
4766;SDS011;2397;53.576;9.746;2024-03-23T04:27:32;11.77;;;3.30;;
4766;SDS011;2397;53.576;9.746;2024-03-23T04:29:58;12.90;;;3.40;;
4766;SDS011;2397;53.576;9.746;2024-03-23T04:32:26;16.63;;;3.50;;
4766;SDS011;2397;53.576;9.746;2024-03-23T04:34:53;17.30;;;3.67;;
4766;SDS011;2397;53.576;9.746;2024-03-23T04:37:20;19.50;;;4.03;;
4766;SDS011;2397;53.576;9.746;2024-03-23T04:39:46;13.80;;;4.10;;
4766;SDS011;2397;53.576;9.746;2024-03-23T04:42:14;13.20;;;3.70;;
4766;SDS011;2397;53.576;9.746;2024-03-23T04:44:40;20.43;;;4.43;;
4766;SDS011;2397;53.576;9.746;2024-03-23T04:47:06;15.37;;;3.77;;
4766;SDS011;2397;53.576;9.746;2024-03-23T04:49:32;18.37;;;3.93;;
4766;SDS011;2397;53.576;9.746;2024-03-23T04:51:58;10.63;;;3.00;;
4766;SDS011;2397;53.576;9.746;2024-03-23T04:54:24;9.80;;;3.57;;
4766;SDS011;2397;53.576;9.746;2024-03-23T04:56:50;10.63;;;3.30;;
4766;SDS011;2397;53.576;9.746;2024-03-23T04:59:16;13.30;;;2.90;;
4766;SDS011;2397;53.576;9.746;2024-03-23T05:01:42;13.97;;;6.93;;
4766;SDS011;2397;53.576;9.746;2024-03-23T05:04:08;19.73;;;4.53;;
4766;SDS011;2397;53.576;9.746;2024-03-23T05:06:34;11.73;;;3.30;;
4766;SDS011;2397;53.576;9.746;2024-03-23T05:09:00;17.97;;;4.43;;
4766;SDS011;2397;53.576;9.746;2024-03-23T05:11:31;13.10;;;3.77;;
4766;SDS011;2397;53.576;9.746;2024-03-23T05:13:57;22.17;;;5.60;;
4766;SDS011;2397;53.576;9.746;2024-03-23T05:16:23;16.03;;;4.10;;
4766;SDS011;2397;53.576;9.746;2024-03-23T05:18:48;15.90;;;3.70;;
4766;SDS011;2397;53.576;9.746;2024-03-23T05:21:14;13.83;;;3.80;;
4766;SDS011;2397;53.576;9.746;2024-03-23T05:23:40;10.10;;;3.03;;
4766;SDS011;2397;53.576;9.746;2024-03-23T05:26:05;13.20;;;4.23;;
4766;SDS011;2397;53.576;9.746;2024-03-23T05:28:31;16.97;;;4.70;;
4766;SDS011;2397;53.576;9.746;2024-03-23T05:30:56;10.00;;;3.50;;
4766;SDS011;2397;53.576;9.746;2024-03-23T05:33:22;17.30;;;4.10;;
4766;SDS011;2397;53.576;9.746;2024-03-23T05:35:56;16.20;;;3.57;;
4766;SDS011;2397;53.576;9.746;2024-03-23T05:38:22;26.60;;;3.90;;
4766;SDS011;2397;53.576;9.746;2024-03-23T05:40:58;11.77;;;2.70;;
4766;SDS011;2397;53.576;9.746;2024-03-23T05:43:25;11.53;;;3.40;;
4766;SDS011;2397;53.576;9.746;2024-03-23T05:45:55;13.37;;;3.83;;
4766;SDS011;2397;53.576;9.746;2024-03-23T05:48:21;15.40;;;3.70;;
4766;SDS011;2397;53.576;9.746;2024-03-23T05:50:51;11.60;;;4.27;;
4766;SDS011;2397;53.576;9.746;2024-03-23T05:53:17;17.20;;;4.33;;
4766;SDS011;2397;53.576;9.746;2024-03-23T05:55:43;14.50;;;3.67;;
4766;SDS011;2397;53.576;9.746;2024-03-23T05:58:09;16.53;;;3.97;;
4766;SDS011;2397;53.576;9.746;2024-03-23T06:00:35;12.37;;;3.83;;
4766;SDS011;2397;53.576;9.746;2024-03-23T06:03:01;17.60;;;3.53;;
4766;SDS011;2397;53.576;9.746;2024-03-23T06:05:27;21.23;;;4.00;;
4766;SDS011;2397;53.576;9.746;2024-03-23T06:07:53;13.43;;;3.77;;
4766;SDS011;2397;53.576;9.746;2024-03-23T06:10:18;10.43;;;3.37;;
4766;SDS011;2397;53.576;9.746;2024-03-23T06:12:47;16.93;;;3.40;;
4766;SDS011;2397;53.576;9.746;2024-03-23T06:15:14;17.43;;;3.93;;
4766;SDS011;2397;53.576;9.746;2024-03-23T06:17:40;20.43;;;3.23;;
4766;SDS011;2397;53.576;9.746;2024-03-23T06:20:06;8.03;;;3.20;;
4766;SDS011;2397;53.576;9.746;2024-03-23T06:22:32;9.50;;;3.70;;
4766;SDS011;2397;53.576;9.746;2024-03-23T06:24:59;17.30;;;4.73;;
4766;SDS011;2397;53.576;9.746;2024-03-23T06:27:24;12.27;;;3.43;;
4766;SDS011;2397;53.576;9.746;2024-03-23T06:29:50;12.00;;;3.70;;
4766;SDS011;2397;53.576;9.746;2024-03-23T06:32:17;11.57;;;4.27;;
4766;SDS011;2397;53.576;9.746;2024-03-23T06:34:43;23.83;;;4.10;;
4766;SDS011;2397;53.576;9.746;2024-03-23T06:37:10;13.53;;;3.80;;
4766;SDS011;2397;53.576;9.746;2024-03-23T06:39:37;13.53;;;4.50;;
4766;SDS011;2397;53.576;9.746;2024-03-23T06:42:03;16.03;;;3.40;;
4766;SDS011;2397;53.576;9.746;2024-03-23T06:44:29;33.37;;;5.03;;
4766;SDS011;2397;53.576;9.746;2024-03-23T06:46:55;9.43;;;4.07;;
4766;SDS011;2397;53.576;9.746;2024-03-23T06:49:22;21.03;;;4.13;;
4766;SDS011;2397;53.576;9.746;2024-03-23T06:51:48;21.67;;;4.53;;
4766;SDS011;2397;53.576;9.746;2024-03-23T06:54:14;22.40;;;4.10;;
4766;SDS011;2397;53.576;9.746;2024-03-23T06:56:40;12.53;;;3.93;;
4766;SDS011;2397;53.576;9.746;2024-03-23T06:59:06;18.40;;;3.80;;
4766;SDS011;2397;53.576;9.746;2024-03-23T07:01:32;13.37;;;3.73;;
4766;SDS011;2397;53.576;9.746;2024-03-23T07:03:57;16.13;;;4.10;;
4766;SDS011;2397;53.576;9.746;2024-03-23T07:06:23;20.50;;;3.80;;
4766;SDS011;2397;53.576;9.746;2024-03-23T07:08:48;17.50;;;4.30;;
4766;SDS011;2397;53.576;9.746;2024-03-23T07:11:21;22.33;;;4.50;;
4766;SDS011;2397;53.576;9.746;2024-03-23T07:13:49;26.10;;;4.00;;
4766;SDS011;2397;53.576;9.746;2024-03-23T07:16:15;15.03;;;4.10;;
4766;SDS011;2397;53.576;9.746;2024-03-23T07:18:41;27.07;;;5.90;;
4766;SDS011;2397;53.576;9.746;2024-03-23T07:21:07;23.10;;;5.00;;
4766;SDS011;2397;53.576;9.746;2024-03-23T07:23:33;16.77;;;4.70;;
4766;SDS011;2397;53.576;9.746;2024-03-23T07:26:00;21.60;;;4.70;;
4766;SDS011;2397;53.576;9.746;2024-03-23T07:28:26;18.20;;;4.73;;
4766;SDS011;2397;53.576;9.746;2024-03-23T07:31:03;21.07;;;4.63;;
4766;SDS011;2397;53.576;9.746;2024-03-23T07:33:30;17.73;;;4.80;;
4766;SDS011;2397;53.576;9.746;2024-03-23T07:35:56;17.63;;;5.63;;
4766;SDS011;2397;53.576;9.746;2024-03-23T07:38:23;17.77;;;3.50;;
4766;SDS011;2397;53.576;9.746;2024-03-23T07:40:49;11.77;;;4.30;;
4766;SDS011;2397;53.576;9.746;2024-03-23T07:43:19;21.30;;;4.83;;
4766;SDS011;2397;53.576;9.746;2024-03-23T07:45:50;16.43;;;4.27;;
4766;SDS011;2397;53.576;9.746;2024-03-23T07:48:17;15.20;;;3.87;;
4766;SDS011;2397;53.576;9.746;2024-03-23T07:50:42;12.80;;;3.23;;
4766;SDS011;2397;53.576;9.746;2024-03-23T07:53:08;29.77;;;4.47;;
4766;SDS011;2397;53.576;9.746;2024-03-23T07:55:34;12.30;;;3.63;;
4766;SDS011;2397;53.576;9.746;2024-03-23T07:57:59;24.10;;;4.97;;
4766;SDS011;2397;53.576;9.746;2024-03-23T08:00:25;16.07;;;3.97;;
4766;SDS011;2397;53.576;9.746;2024-03-23T08:02:51;15.70;;;3.90;;
4766;SDS011;2397;53.576;9.746;2024-03-23T08:05:17;14.70;;;4.20;;
4766;SDS011;2397;53.576;9.746;2024-03-23T08:07:42;23.03;;;4.13;;
4766;SDS011;2397;53.576;9.746;2024-03-23T08:10:08;12.43;;;4.20;;
4766;SDS011;2397;53.576;9.746;2024-03-23T08:12:33;19.10;;;4.47;;
4766;SDS011;2397;53.576;9.746;2024-03-23T08:14:59;12.03;;;3.30;;
4766;SDS011;2397;53.576;9.746;2024-03-23T08:17:25;15.73;;;3.50;;
4766;SDS011;2397;53.576;9.746;2024-03-23T08:19:50;10.97;;;4.00;;
4766;SDS011;2397;53.576;9.746;2024-03-23T08:22:18;11.93;;;3.47;;
4766;SDS011;2397;53.576;9.746;2024-03-23T08:24:44;11.17;;;3.40;;
4766;SDS011;2397;53.576;9.746;2024-03-23T08:27:10;15.60;;;4.13;;
4766;SDS011;2397;53.576;9.746;2024-03-23T08:29:35;7.23;;;4.20;;
4766;SDS011;2397;53.576;9.746;2024-03-23T08:32:01;14.90;;;3.47;;
4766;SDS011;2397;53.576;9.746;2024-03-23T08:34:27;9.23;;;2.80;;
4766;SDS011;2397;53.576;9.746;2024-03-23T08:36:52;14.13;;;3.60;;
4766;SDS011;2397;53.576;9.746;2024-03-23T08:39:18;14.40;;;4.13;;
4766;SDS011;2397;53.576;9.746;2024-03-23T08:41:44;14.23;;;4.00;;
4766;SDS011;2397;53.576;9.746;2024-03-23T08:44:11;19.53;;;4.20;;
4766;SDS011;2397;53.576;9.746;2024-03-23T08:46:37;15.37;;;4.40;;
4766;SDS011;2397;53.576;9.746;2024-03-23T08:49:02;8.07;;;3.03;;
4766;SDS011;2397;53.576;9.746;2024-03-23T08:51:31;17.33;;;4.83;;
4766;SDS011;2397;53.576;9.746;2024-03-23T08:53:57;14.77;;;3.30;;
4766;SDS011;2397;53.576;9.746;2024-03-23T08:56:22;12.47;;;3.03;;
4766;SDS011;2397;53.576;9.746;2024-03-23T08:58:48;10.43;;;3.60;;
4766;SDS011;2397;53.576;9.746;2024-03-23T09:01:14;11.27;;;3.40;;
4766;SDS011;2397;53.576;9.746;2024-03-23T09:03:39;23.63;;;3.73;;
4766;SDS011;2397;53.576;9.746;2024-03-23T09:06:09;10.17;;;3.60;;
4766;SDS011;2397;53.576;9.746;2024-03-23T09:08:39;13.97;;;4.10;;
4766;SDS011;2397;53.576;9.746;2024-03-23T09:11:10;17.53;;;3.53;;
4766;SDS011;2397;53.576;9.746;2024-03-23T09:13:37;18.37;;;3.70;;
4766;SDS011;2397;53.576;9.746;2024-03-23T09:16:04;15.83;;;4.40;;
4766;SDS011;2397;53.576;9.746;2024-03-23T09:18:31;7.87;;;3.03;;
4766;SDS011;2397;53.576;9.746;2024-03-23T09:20:58;5.53;;;2.60;;
4766;SDS011;2397;53.576;9.746;2024-03-23T09:23:23;14.40;;;3.10;;
4766;SDS011;2397;53.576;9.746;2024-03-23T09:25:49;13.60;;;3.73;;
4766;SDS011;2397;53.576;9.746;2024-03-23T09:28:15;11.53;;;2.97;;
4766;SDS011;2397;53.576;9.746;2024-03-23T09:30:41;9.53;;;3.20;;
4766;SDS011;2397;53.576;9.746;2024-03-23T09:33:10;12.10;;;3.03;;
4766;SDS011;2397;53.576;9.746;2024-03-23T09:35:39;11.63;;;2.67;;
4766;SDS011;2397;53.576;9.746;2024-03-23T09:38:07;8.27;;;3.20;;
4766;SDS011;2397;53.576;9.746;2024-03-23T09:40:34;12.83;;;2.97;;
4766;SDS011;2397;53.576;9.746;2024-03-23T09:43:01;5.57;;;2.80;;
4766;SDS011;2397;53.576;9.746;2024-03-23T09:45:27;4.73;;;2.57;;
4766;SDS011;2397;53.576;9.746;2024-03-23T09:47:57;7.00;;;3.57;;
4766;SDS011;2397;53.576;9.746;2024-03-23T09:50:23;13.83;;;2.93;;
4766;SDS011;2397;53.576;9.746;2024-03-23T09:52:49;9.60;;;2.40;;
4766;SDS011;2397;53.576;9.746;2024-03-23T09:55:14;14.17;;;3.43;;
4766;SDS011;2397;53.576;9.746;2024-03-23T09:57:41;10.20;;;3.20;;
4766;SDS011;2397;53.576;9.746;2024-03-23T10:00:07;9.37;;;3.03;;
4766;SDS011;2397;53.576;9.746;2024-03-23T10:02:34;12.40;;;3.20;;
4766;SDS011;2397;53.576;9.746;2024-03-23T10:05:00;10.10;;;4.00;;
4766;SDS011;2397;53.576;9.746;2024-03-23T10:07:26;10.53;;;2.83;;
4766;SDS011;2397;53.576;9.746;2024-03-23T10:09:55;8.70;;;2.87;;
4766;SDS011;2397;53.576;9.746;2024-03-23T10:12:22;8.87;;;3.00;;
4766;SDS011;2397;53.576;9.746;2024-03-23T10:14:49;12.57;;;2.87;;
4766;SDS011;2397;53.576;9.746;2024-03-23T10:17:15;9.97;;;2.37;;
4766;SDS011;2397;53.576;9.746;2024-03-23T10:19:45;8.10;;;2.30;;
4766;SDS011;2397;53.576;9.746;2024-03-23T10:22:14;10.63;;;2.77;;
4766;SDS011;2397;53.576;9.746;2024-03-23T10:24:42;9.47;;;2.60;;
4766;SDS011;2397;53.576;9.746;2024-03-23T10:27:08;9.90;;;2.33;;
4766;SDS011;2397;53.576;9.746;2024-03-23T10:29:34;12.53;;;2.93;;
4766;SDS011;2397;53.576;9.746;2024-03-23T10:32:09;9.93;;;2.37;;
4766;SDS011;2397;53.576;9.746;2024-03-23T10:34:36;7.53;;;2.97;;
4766;SDS011;2397;53.576;9.746;2024-03-23T10:37:02;3.30;;;2.10;;
4766;SDS011;2397;53.576;9.746;2024-03-23T10:39:32;13.03;;;2.33;;
4766;SDS011;2397;53.576;9.746;2024-03-23T10:42:02;8.63;;;3.03;;
4766;SDS011;2397;53.576;9.746;2024-03-23T10:44:31;13.13;;;3.50;;
4766;SDS011;2397;53.576;9.746;2024-03-23T10:46:58;10.67;;;3.03;;
4766;SDS011;2397;53.576;9.746;2024-03-23T10:49:25;4.00;;;2.17;;
4766;SDS011;2397;53.576;9.746;2024-03-23T10:51:52;10.07;;;2.60;;
4766;SDS011;2397;53.576;9.746;2024-03-23T10:54:18;4.77;;;2.17;;
4766;SDS011;2397;53.576;9.746;2024-03-23T10:56:44;6.07;;;2.27;;
4766;SDS011;2397;53.576;9.746;2024-03-23T10:59:11;5.70;;;1.93;;
4766;SDS011;2397;53.576;9.746;2024-03-23T11:02:00;4.77;;;2.20;;
4766;SDS011;2397;53.576;9.746;2024-03-23T11:04:34;5.83;;;3.20;;
4766;SDS011;2397;53.576;9.746;2024-03-23T11:07:01;7.93;;;2.50;;
4766;SDS011;2397;53.576;9.746;2024-03-23T11:17:25;4.67;;;1.80;;
4766;SDS011;2397;53.576;9.746;2024-03-23T11:19:55;2.40;;;1.53;;
4766;SDS011;2397;53.576;9.746;2024-03-23T11:25:19;7.93;;;2.23;;
4766;SDS011;2397;53.576;9.746;2024-03-23T11:27:46;4.30;;;2.40;;
4766;SDS011;2397;53.576;9.746;2024-03-23T11:30:31;6.40;;;2.20;;
4766;SDS011;2397;53.576;9.746;2024-03-23T11:32:57;8.83;;;4.27;;
4766;SDS011;2397;53.576;9.746;2024-03-23T11:35:29;8.97;;;1.90;;
4766;SDS011;2397;53.576;9.746;2024-03-23T11:38:02;6.47;;;2.03;;
4766;SDS011;2397;53.576;9.746;2024-03-23T11:40:29;3.97;;;2.10;;
4766;SDS011;2397;53.576;9.746;2024-03-23T11:42:55;8.03;;;2.37;;
4766;SDS011;2397;53.576;9.746;2024-03-23T11:45:21;5.37;;;1.40;;
4766;SDS011;2397;53.576;9.746;2024-03-23T11:47:47;1.20;;;0.90;;
4766;SDS011;2397;53.576;9.746;2024-03-23T11:50:19;1.57;;;1.00;;
4766;SDS011;2397;53.576;9.746;2024-03-23T11:52:45;4.77;;;1.27;;
4766;SDS011;2397;53.576;9.746;2024-03-23T11:55:11;7.00;;;1.80;;
4766;SDS011;2397;53.576;9.746;2024-03-23T11:57:36;3.83;;;1.33;;
4766;SDS011;2397;53.576;9.746;2024-03-23T12:00:03;3.93;;;1.60;;
4766;SDS011;2397;53.576;9.746;2024-03-23T12:02:45;7.50;;;1.87;;
4766;SDS011;2397;53.576;9.746;2024-03-23T12:05:15;2.60;;;1.73;;
4766;SDS011;2397;53.576;9.746;2024-03-23T12:07:41;3.10;;;1.60;;
4766;SDS011;2397;53.576;9.746;2024-03-23T12:10:07;2.77;;;1.30;;
4766;SDS011;2397;53.576;9.746;2024-03-23T12:12:32;5.50;;;1.37;;
4766;SDS011;2397;53.576;9.746;2024-03-23T12:15:05;5.00;;;1.63;;
4766;SDS011;2397;53.576;9.746;2024-03-23T12:17:33;2.37;;;1.90;;
4766;SDS011;2397;53.576;9.746;2024-03-23T12:20:00;3.57;;;1.80;;
4766;SDS011;2397;53.576;9.746;2024-03-23T12:22:27;4.50;;;1.80;;
4766;SDS011;2397;53.576;9.746;2024-03-23T12:24:52;3.00;;;1.00;;
4766;SDS011;2397;53.576;9.746;2024-03-23T12:27:18;4.03;;;1.10;;
4766;SDS011;2397;53.576;9.746;2024-03-23T12:29:44;1.00;;;0.90;;
4766;SDS011;2397;53.576;9.746;2024-03-23T12:32:13;3.03;;;0.90;;
4766;SDS011;2397;53.576;9.746;2024-03-23T12:34:39;2.13;;;1.27;;
4766;SDS011;2397;53.576;9.746;2024-03-23T12:37:05;2.13;;;1.23;;
4766;SDS011;2397;53.576;9.746;2024-03-23T12:39:34;1.10;;;1.00;;
4766;SDS011;2397;53.576;9.746;2024-03-23T12:42:01;9.67;;;2.20;;
4766;SDS011;2397;53.576;9.746;2024-03-23T12:44:30;1.50;;;1.27;;
4766;SDS011;2397;53.576;9.746;2024-03-23T12:46:55;2.40;;;1.40;;
4766;SDS011;2397;53.576;9.746;2024-03-23T12:49:21;2.13;;;1.97;;
4766;SDS011;2397;53.576;9.746;2024-03-23T12:51:53;7.27;;;1.60;;
4766;SDS011;2397;53.576;9.746;2024-03-23T12:54:21;5.30;;;1.63;;
4766;SDS011;2397;53.576;9.746;2024-03-23T12:56:47;3.40;;;1.50;;
4766;SDS011;2397;53.576;9.746;2024-03-23T12:59:13;2.80;;;1.53;;
4766;SDS011;2397;53.576;9.746;2024-03-23T13:01:39;2.10;;;1.53;;
4766;SDS011;2397;53.576;9.746;2024-03-23T13:04:05;3.70;;;1.30;;
4766;SDS011;2397;53.576;9.746;2024-03-23T13:06:31;6.23;;;2.07;;
4766;SDS011;2397;53.576;9.746;2024-03-23T13:09:00;4.57;;;1.73;;
4766;SDS011;2397;53.576;9.746;2024-03-23T13:11:27;4.03;;;1.97;;
4766;SDS011;2397;53.576;9.746;2024-03-23T13:13:53;4.00;;;1.80;;
4766;SDS011;2397;53.576;9.746;2024-03-23T13:16:19;4.03;;;2.67;;
4766;SDS011;2397;53.576;9.746;2024-03-23T13:18:45;4.37;;;2.00;;
4766;SDS011;2397;53.576;9.746;2024-03-23T13:21:10;3.60;;;1.93;;
4766;SDS011;2397;53.576;9.746;2024-03-23T13:23:36;5.73;;;2.03;;
4766;SDS011;2397;53.576;9.746;2024-03-23T13:26:03;2.53;;;1.30;;
4766;SDS011;2397;53.576;9.746;2024-03-23T13:28:29;2.23;;;1.47;;
4766;SDS011;2397;53.576;9.746;2024-03-23T13:30:55;3.20;;;1.40;;
4766;SDS011;2397;53.576;9.746;2024-03-23T13:33:23;6.23;;;1.40;;
4766;SDS011;2397;53.576;9.746;2024-03-23T13:35:51;1.47;;;1.30;;
4766;SDS011;2397;53.576;9.746;2024-03-23T13:38:18;3.20;;;1.27;;
4766;SDS011;2397;53.576;9.746;2024-03-23T13:40:57;2.73;;;1.27;;
4766;SDS011;2397;53.576;9.746;2024-03-23T13:43:24;1.40;;;1.10;;
4766;SDS011;2397;53.576;9.746;2024-03-23T13:45:56;2.20;;;1.10;;
4766;SDS011;2397;53.576;9.746;2024-03-23T13:48:23;2.17;;;1.20;;
4766;SDS011;2397;53.576;9.746;2024-03-23T13:50:56;6.00;;;1.33;;
4766;SDS011;2397;53.576;9.746;2024-03-23T13:53:29;1.67;;;1.43;;
4766;SDS011;2397;53.576;9.746;2024-03-23T13:55:54;2.40;;;1.23;;
4766;SDS011;2397;53.576;9.746;2024-03-23T13:58:21;1.47;;;1.30;;
4766;SDS011;2397;53.576;9.746;2024-03-23T14:00:47;5.07;;;1.60;;
4766;SDS011;2397;53.576;9.746;2024-03-23T14:03:13;1.20;;;1.10;;
4766;SDS011;2397;53.576;9.746;2024-03-23T14:05:39;3.30;;;1.20;;
4766;SDS011;2397;53.576;9.746;2024-03-23T14:10:35;4.27;;;1.20;;
4766;SDS011;2397;53.576;9.746;2024-03-23T14:13:02;4.97;;;1.47;;
4766;SDS011;2397;53.576;9.746;2024-03-23T14:15:28;3.07;;;1.33;;
4766;SDS011;2397;53.576;9.746;2024-03-23T14:17:55;3.63;;;1.60;;
4766;SDS011;2397;53.576;9.746;2024-03-23T14:20:22;5.20;;;2.13;;
4766;SDS011;2397;53.576;9.746;2024-03-23T14:22:49;2.50;;;1.40;;
4766;SDS011;2397;53.576;9.746;2024-03-23T14:25:15;3.47;;;1.63;;
4766;SDS011;2397;53.576;9.746;2024-03-23T14:27:41;3.10;;;1.67;;
4766;SDS011;2397;53.576;9.746;2024-03-23T14:30:07;6.80;;;2.40;;
4766;SDS011;2397;53.576;9.746;2024-03-23T14:32:33;3.20;;;1.53;;
4766;SDS011;2397;53.576;9.746;2024-03-23T14:35:03;4.63;;;1.70;;
4766;SDS011;2397;53.576;9.746;2024-03-23T14:37:29;4.20;;;1.53;;
4766;SDS011;2397;53.576;9.746;2024-03-23T14:39:55;2.47;;;1.23;;
4766;SDS011;2397;53.576;9.746;2024-03-23T14:42:22;1.07;;;0.97;;
4766;SDS011;2397;53.576;9.746;2024-03-23T14:44:47;3.27;;;1.07;;
4766;SDS011;2397;53.576;9.746;2024-03-23T14:47:13;5.07;;;1.30;;
4766;SDS011;2397;53.576;9.746;2024-03-23T14:49:38;3.10;;;1.30;;
4766;SDS011;2397;53.576;9.746;2024-03-23T14:52:04;3.03;;;1.47;;
4766;SDS011;2397;53.576;9.746;2024-03-23T14:54:30;3.17;;;1.50;;
4766;SDS011;2397;53.576;9.746;2024-03-23T14:56:56;1.97;;;1.70;;
4766;SDS011;2397;53.576;9.746;2024-03-23T14:59:23;1.40;;;1.00;;
4766;SDS011;2397;53.576;9.746;2024-03-23T15:01:49;2.43;;;1.20;;
4766;SDS011;2397;53.576;9.746;2024-03-23T15:04:16;2.20;;;1.23;;
4766;SDS011;2397;53.576;9.746;2024-03-23T15:06:41;2.57;;;1.20;;
4766;SDS011;2397;53.576;9.746;2024-03-23T15:09:07;1.60;;;1.13;;
4766;SDS011;2397;53.576;9.746;2024-03-23T15:11:37;2.27;;;1.30;;
4766;SDS011;2397;53.576;9.746;2024-03-23T15:14:02;3.80;;;1.40;;
4766;SDS011;2397;53.576;9.746;2024-03-23T15:16:28;2.10;;;1.13;;
4766;SDS011;2397;53.576;9.746;2024-03-23T15:18:54;2.40;;;1.13;;
4766;SDS011;2397;53.576;9.746;2024-03-23T15:21:20;1.87;;;1.40;;
4766;SDS011;2397;53.576;9.746;2024-03-23T15:23:46;4.73;;;2.10;;
4766;SDS011;2397;53.576;9.746;2024-03-23T15:26:14;3.90;;;1.90;;
4766;SDS011;2397;53.576;9.746;2024-03-23T15:28:41;8.17;;;2.00;;
4766;SDS011;2397;53.576;9.746;2024-03-23T15:31:09;3.00;;;1.70;;
4766;SDS011;2397;53.576;9.746;2024-03-23T15:33:35;2.20;;;1.20;;
4766;SDS011;2397;53.576;9.746;2024-03-23T15:36:02;7.30;;;1.90;;
4766;SDS011;2397;53.576;9.746;2024-03-23T15:38:28;7.77;;;2.43;;
4766;SDS011;2397;53.576;9.746;2024-03-23T15:40:57;2.77;;;1.50;;
4766;SDS011;2397;53.576;9.746;2024-03-23T15:43:23;9.97;;;2.00;;
4766;SDS011;2397;53.576;9.746;2024-03-23T15:45:56;3.47;;;1.80;;
4766;SDS011;2397;53.576;9.746;2024-03-23T15:48:26;6.30;;;1.77;;
4766;SDS011;2397;53.576;9.746;2024-03-23T15:50:58;5.37;;;2.57;;
4766;SDS011;2397;53.576;9.746;2024-03-23T15:53:26;4.70;;;1.70;;
4766;SDS011;2397;53.576;9.746;2024-03-23T15:55:56;7.80;;;1.83;;
4766;SDS011;2397;53.576;9.746;2024-03-23T15:58:22;4.83;;;2.07;;
4766;SDS011;2397;53.576;9.746;2024-03-23T16:00:58;5.13;;;1.30;;
4766;SDS011;2397;53.576;9.746;2024-03-23T16:03:28;6.77;;;2.10;;
4766;SDS011;2397;53.576;9.746;2024-03-23T16:05:55;4.93;;;1.33;;
4766;SDS011;2397;53.576;9.746;2024-03-23T16:08:21;6.03;;;1.50;;
4766;SDS011;2397;53.576;9.746;2024-03-23T16:10:47;8.20;;;1.80;;
4766;SDS011;2397;53.576;9.746;2024-03-23T16:13:13;2.40;;;1.20;;